createdAt,value
2023-02-19T00:01:04.300Z,7.03
2023-02-19T00:03:31.845Z,7.68
2023-02-19T00:06:02.065Z,7.32
2023-02-19T00:08:31.065Z,6.85
2023-02-19T00:11:09.569Z,7.68
2023-02-19T00:13:38.094Z,7.05
2023-02-19T00:16:16.409Z,7.18
2023-02-19T00:18:44.501Z,7.40
2023-02-19T00:21:12.432Z,6.82
2023-02-19T00:23:40.116Z,7.45
2023-02-19T00:26:17.606Z,7.28
2023-02-19T00:28:46.994Z,6.90
2023-02-19T00:31:22.354Z,7.53
2023-02-19T00:33:50.358Z,7.38
2023-02-19T00:36:17.892Z,7.60
2023-02-19T00:38:45.947Z,7.85
2023-02-19T00:41:20.236Z,7.45
2023-02-19T00:43:55.562Z,7.50
2023-02-19T00:46:24.467Z,7.88
2023-02-19T00:48:55.102Z,7.63
2023-02-19T00:51:23.847Z,7.82
2023-02-19T00:53:51.314Z,8.05
2023-02-19T00:56:19.172Z,8.63
2023-02-19T00:58:46.539Z,9.27
2023-02-19T01:01:14.699Z,7.95
2023-02-19T01:03:42.156Z,8.07
2023-02-19T01:06:10.897Z,8.43
2023-02-19T01:08:38.593Z,8.13
2023-02-19T01:11:06.856Z,8.45
2023-02-19T01:13:34.489Z,8.52
2023-02-19T01:16:10.159Z,7.93
2023-02-19T01:21:08.992Z,7.95
2023-02-19T01:23:37.042Z,7.88
2023-02-19T01:26:06.190Z,8.00
2023-02-19T01:28:33.854Z,7.65
2023-02-19T01:31:02.783Z,8.55
2023-02-19T01:33:30.424Z,8.35
2023-02-19T01:35:58.161Z,8.93
2023-02-19T01:38:25.623Z,8.27
2023-02-19T01:41:00.395Z,8.32
2023-02-19T01:43:28.433Z,7.85
2023-02-19T01:45:55.862Z,8.88
2023-02-19T01:48:34.901Z,8.68
2023-02-19T01:51:11.532Z,8.07
2023-02-19T01:53:41.854Z,7.75
2023-02-19T01:56:09.876Z,8.30
2023-02-19T01:58:38.946Z,8.65
2023-02-19T02:01:07.671Z,8.88
2023-02-19T02:03:39.642Z,8.20
2023-02-19T02:06:14.873Z,8.38
2023-02-19T02:11:28.650Z,8.90
2023-02-19T02:13:56.158Z,8.65
2023-02-19T02:16:23.996Z,8.18
2023-02-19T02:18:54.858Z,8.75
2023-02-19T02:21:25.428Z,8.70
2023-02-19T02:23:55.983Z,8.77
2023-02-19T02:26:53.056Z,8.77
2023-02-19T02:29:43.693Z,7.97
2023-02-19T02:32:13.803Z,8.48
2023-02-19T02:34:46.745Z,8.73
2023-02-19T02:37:15.831Z,8.82
2023-02-19T02:39:44.495Z,8.73
2023-02-19T02:42:27.415Z,8.57
2023-02-19T02:45:36.683Z,8.48
2023-02-19T02:48:27.089Z,9.20
2023-02-19T02:50:57.046Z,9.30
2023-02-19T02:53:46.074Z,9.18
2023-02-19T02:56:15.559Z,9.00
2023-02-19T02:58:44.894Z,9.60
2023-02-19T03:01:49.393Z,9.02
2023-02-19T03:04:22.346Z,10.60
2023-02-19T03:06:50.156Z,8.98
2023-02-19T03:09:31.366Z,9.75
2023-02-19T03:12:21.172Z,9.18
2023-02-19T03:15:08.845Z,9.15
2023-02-19T03:18:04.951Z,9.52
2023-02-19T03:23:01.137Z,9.13
2023-02-19T03:25:51.238Z,9.95
2023-02-19T03:28:46.734Z,10.18
2023-02-19T03:31:17.257Z,9.63
2023-02-19T03:33:46.666Z,10.27
2023-02-19T03:36:15.814Z,9.70
2023-02-19T03:38:48.959Z,10.27
2023-02-19T03:41:34.782Z,10.40
2023-02-19T03:44:14.792Z,10.07
2023-02-19T03:46:46.859Z,10.00
2023-02-19T03:49:33.111Z,9.65
2023-02-19T03:52:23.186Z,10.38
2023-02-19T03:54:52.051Z,10.27
2023-02-19T03:57:40.484Z,9.82
2023-02-19T04:00:26.833Z,10.02
2023-02-19T04:02:54.447Z,10.63
2023-02-19T04:05:26.177Z,10.48
2023-02-19T04:07:56.073Z,10.70
2023-02-19T04:10:30.678Z,10.50
2023-02-19T04:13:02.301Z,9.80
2023-02-19T04:15:32.084Z,10.52
2023-02-19T04:18:08.286Z,9.57
2023-02-19T04:20:38.970Z,10.20
2023-02-19T04:23:06.620Z,9.80
2023-02-19T04:25:34.438Z,9.70
2023-02-19T04:28:02.772Z,9.75
2023-02-19T04:30:30.495Z,9.43
2023-02-19T04:32:57.950Z,10.20
2023-02-19T04:35:25.381Z,10.23
2023-02-19T04:37:52.811Z,10.55
2023-02-19T04:40:20.638Z,10.43
2023-02-19T04:42:48.118Z,10.63
2023-02-19T04:45:15.545Z,10.70
2023-02-19T04:47:43.004Z,9.77
2023-02-19T04:50:10.372Z,9.90
2023-02-19T04:52:37.933Z,10.55
2023-02-19T04:55:05.449Z,9.85
2023-02-19T04:57:32.903Z,10.30
2023-02-19T05:00:00.287Z,10.10
2023-02-19T05:02:27.764Z,10.40
2023-02-19T05:04:55.198Z,10.25
2023-02-19T05:07:22.674Z,10.32
2023-02-19T05:09:50.048Z,10.48
2023-02-19T05:12:17.536Z,11.27
2023-02-19T05:14:45.821Z,9.95
2023-02-19T05:17:13.293Z,10.82
2023-02-19T05:19:40.696Z,10.77
2023-02-19T05:22:08.166Z,11.45
2023-02-19T05:24:35.549Z,11.02
2023-02-19T05:27:02.955Z,10.88
2023-02-19T05:29:31.574Z,11.23
2023-02-19T05:31:59.504Z,11.27
2023-02-19T05:34:26.943Z,11.43
2023-02-19T05:36:54.394Z,11.82
2023-02-19T05:39:21.766Z,11.65
2023-02-19T05:41:49.308Z,11.90
2023-02-19T05:44:16.775Z,12.38
2023-02-19T05:46:44.239Z,12.52
2023-02-19T05:49:11.626Z,12.35
2023-02-19T05:51:39.109Z,12.15
2023-02-19T05:54:06.873Z,13.30
2023-02-19T05:56:38.915Z,13.65
2023-02-19T05:59:16.171Z,13.82
2023-02-19T06:01:43.865Z,13.35
2023-02-19T06:04:11.801Z,13.75
2023-02-19T06:06:39.582Z,13.93
2023-02-19T06:09:07.724Z,13.10
2023-02-19T06:11:35.744Z,12.55
2023-02-19T06:14:03.159Z,13.65
2023-02-19T06:16:32.242Z,12.60
2023-02-19T06:18:59.635Z,12.93
2023-02-19T06:21:27.129Z,12.70
2023-02-19T06:23:54.694Z,13.40
2023-02-19T06:26:23.213Z,13.63
2023-02-19T06:28:51.486Z,13.73
2023-02-19T06:31:19.804Z,13.52
2023-02-19T06:33:47.582Z,13.68
2023-02-19T06:36:17.089Z,13.48
2023-02-19T06:38:44.939Z,14.18
2023-02-19T06:41:13.269Z,13.43
2023-02-19T06:43:40.990Z,13.52
2023-02-19T06:46:08.705Z,13.48
2023-02-19T06:48:36.534Z,14.30
2023-02-19T06:51:04.489Z,14.30
2023-02-19T06:53:31.881Z,14.88
2023-02-19T06:56:28.443Z,15.18
2023-02-19T06:58:56.684Z,15.45
2023-02-19T07:01:24.544Z,15.60
2023-02-19T07:03:52.762Z,14.70
2023-02-19T07:06:20.988Z,15.10
2023-02-19T07:08:48.797Z,15.07
2023-02-19T07:11:16.351Z,15.23
2023-02-19T07:13:43.781Z,16.08
2023-02-19T07:16:11.906Z,16.70
2023-02-19T07:18:40.158Z,15.68
2023-02-19T07:21:12.723Z,16.23
2023-02-19T07:23:40.820Z,15.95
2023-02-19T07:26:16.335Z,16.35
2023-02-19T07:28:45.013Z,16.55
2023-02-19T07:31:13.346Z,15.80
2023-02-19T07:33:43.608Z,15.93
2023-02-19T07:36:11.438Z,17.13
2023-02-19T07:38:39.046Z,16.02
2023-02-19T07:41:06.924Z,16.80
2023-02-19T07:43:35.549Z,15.98
2023-02-19T07:46:09.768Z,16.50
2023-02-19T07:48:37.911Z,15.57
2023-02-19T07:51:05.947Z,15.77
2023-02-19T07:53:34.659Z,15.27
2023-02-19T07:56:02.720Z,15.32
2023-02-19T07:58:30.478Z,15.15
2023-02-19T08:00:58.321Z,17.38
2023-02-19T08:03:25.834Z,16.05
2023-02-19T08:05:55.022Z,15.50
2023-02-19T08:08:22.533Z,15.93
2023-02-19T08:11:08.682Z,16.05
2023-02-19T08:13:36.273Z,15.25
2023-02-19T08:16:29.744Z,15.35
2023-02-19T08:18:51.130Z,15.23
2023-02-19T08:21:18.536Z,14.57
2023-02-19T08:23:51.161Z,15.70
2023-02-19T08:26:19.266Z,14.57
2023-02-19T08:28:46.792Z,15.05
2023-02-19T08:31:14.732Z,16.38
2023-02-19T08:33:42.413Z,16.48
2023-02-19T08:36:10.262Z,14.30
2023-02-19T08:38:38.226Z,13.90
2023-02-19T08:41:10.326Z,14.00
2023-02-19T08:43:38.287Z,13.77
2023-02-19T08:46:07.174Z,13.50
2023-02-19T08:48:34.672Z,13.25
2023-02-19T08:51:07.157Z,14.00
2023-02-19T08:53:35.569Z,13.60
2023-02-19T08:56:10.392Z,13.07
2023-02-19T08:58:38.837Z,12.63
2023-02-19T09:01:14.238Z,12.70
2023-02-19T09:03:42.104Z,12.70
2023-02-19T09:06:13.393Z,12.75
2023-02-19T09:08:40.938Z,12.02
2023-02-19T09:11:08.500Z,12.52
2023-02-19T09:13:36.055Z,11.73
2023-02-19T09:16:04.583Z,11.25
2023-02-19T09:18:32.391Z,11.35
2023-02-19T09:21:04.743Z,11.80
2023-02-19T09:23:35.765Z,10.13
2023-02-19T09:26:06.787Z,11.63
2023-02-19T09:28:34.365Z,13.13
2023-02-19T09:31:06.212Z,10.00
2023-02-19T09:33:34.052Z,10.70
2023-02-19T09:36:01.889Z,9.07
2023-02-19T09:38:30.364Z,10.20
2023-02-19T09:40:58.802Z,10.88
2023-02-19T09:43:29.187Z,10.65
2023-02-19T09:46:03.957Z,11.23
2023-02-19T09:48:31.791Z,9.93
2023-02-19T09:51:01.717Z,9.88
2023-02-19T09:53:34.993Z,9.20
2023-02-19T09:56:02.534Z,9.98
2023-02-19T09:58:33.092Z,8.70
2023-02-19T10:01:02.195Z,9.95
2023-02-19T10:03:33.832Z,9.38
2023-02-19T10:06:03.048Z,8.80
2023-02-19T10:08:32.112Z,9.30
2023-02-19T10:11:00.903Z,8.98
2023-02-19T10:13:42.648Z,9.27
2023-02-19T10:16:16.009Z,9.23
2023-02-19T10:18:44.269Z,9.25
2023-02-19T10:21:13.193Z,8.88
2023-02-19T10:23:41.638Z,9.98
2023-02-19T10:26:09.314Z,9.55
2023-02-19T10:28:36.976Z,9.07
2023-02-19T10:31:08.443Z,8.93
2023-02-19T10:33:48.314Z,8.63
2023-02-19T10:36:25.832Z,8.10
2023-02-19T10:38:53.853Z,7.25
2023-02-19T10:41:22.642Z,7.57
2023-02-19T10:43:56.065Z,8.35
2023-02-19T10:46:27.776Z,7.53
2023-02-19T10:48:59.973Z,7.68
2023-02-19T10:51:38.111Z,8.38
2023-02-19T10:54:07.620Z,8.18
2023-02-19T10:56:35.181Z,7.88
2023-02-19T10:59:21.368Z,7.75
2023-02-19T11:02:02.561Z,7.03
2023-02-19T11:04:34.203Z,6.20
2023-02-19T11:07:20.314Z,6.85
2023-02-19T11:09:52.983Z,6.47
2023-02-19T11:12:27.259Z,6.68
2023-02-19T11:14:55.001Z,7.32
2023-02-19T11:17:26.313Z,7.70
2023-02-19T11:19:57.971Z,6.18
2023-02-19T11:22:36.333Z,7.15
2023-02-19T11:25:17.062Z,9.88
2023-02-19T11:28:04.957Z,6.68
2023-02-19T11:30:35.630Z,11.23
2023-02-19T11:33:22.378Z,7.47
2023-02-19T11:35:50.869Z,8.60
2023-02-19T11:38:19.471Z,8.82
2023-02-19T11:40:47.058Z,15.68
2023-02-19T11:43:17.468Z,9.82
2023-02-19T11:46:03.781Z,10.05
2023-02-19T11:48:37.077Z,6.45
2023-02-19T11:51:24.793Z,6.97
2023-02-19T11:53:59.716Z,7.03
2023-02-19T11:59:19.743Z,11.65
2023-02-19T12:01:49.984Z,5.80
2023-02-19T12:04:32.813Z,7.03
2023-02-19T12:07:18.999Z,4.60
2023-02-19T12:09:46.495Z,5.00
2023-02-19T12:12:24.339Z,5.00
2023-02-19T12:14:51.844Z,4.32
2023-02-19T12:17:20.784Z,4.40
2023-02-19T12:20:06.996Z,4.25
2023-02-19T12:22:38.034Z,6.68
2023-02-19T12:25:24.288Z,25.85
2023-02-19T12:28:06.856Z,19.63
2023-02-19T12:30:43.528Z,9.05
2023-02-19T12:33:29.879Z,26.65
2023-02-19T12:36:15.318Z,4.68
2023-02-19T12:38:44.922Z,11.52
2023-02-19T12:41:25.775Z,24.10
2023-02-19T12:43:59.678Z,5.43
2023-02-19T12:46:33.806Z,4.40
2023-02-19T12:49:16.616Z,4.30
2023-02-19T12:51:46.269Z,4.50
2023-02-19T12:54:19.639Z,7.15
2023-02-19T12:56:56.487Z,4.32
2023-02-19T12:59:27.986Z,3.67
2023-02-19T13:02:00.520Z,5.30
2023-02-19T13:04:35.941Z,6.20
2023-02-19T13:07:07.776Z,3.25
2023-02-19T13:09:37.841Z,3.15
2023-02-19T13:12:08.513Z,3.55
2023-02-19T13:14:41.527Z,3.63
2023-02-19T13:17:18.010Z,3.80
2023-02-19T13:19:47.578Z,4.40
2023-02-19T13:22:59.343Z,3.00
2023-02-19T13:25:32.686Z,2.83
2023-02-19T13:28:15.165Z,2.92
2023-02-19T13:30:58.148Z,2.50
2023-02-19T13:33:36.390Z,2.92
2023-02-19T13:36:06.694Z,3.13
2023-02-19T13:38:38.205Z,2.80
2023-02-19T13:41:05.932Z,2.40
2023-02-19T13:43:35.811Z,2.55
2023-02-19T13:46:04.800Z,2.58
2023-02-19T13:48:32.226Z,2.60
2023-02-19T13:51:23.648Z,2.58
2023-02-19T13:53:58.485Z,2.03
2023-02-19T13:56:34.930Z,2.35
2023-02-19T13:59:11.539Z,3.97
2023-02-19T14:01:54.197Z,2.40
2023-02-19T14:04:40.473Z,2.80
2023-02-19T14:07:07.879Z,2.70
2023-02-19T14:09:41.341Z,2.80
2023-02-19T14:12:17.839Z,2.70
2023-02-19T14:14:45.326Z,2.92
2023-02-19T14:17:27.738Z,2.88
2023-02-19T14:20:11.627Z,2.75
2023-02-19T14:22:49.803Z,2.90
2023-02-19T14:25:29.502Z,2.92
2023-02-19T14:28:01.930Z,2.72
2023-02-19T14:30:29.740Z,2.80
2023-02-19T14:33:09.740Z,2.90
2023-02-19T14:35:45.552Z,2.60
2023-02-19T14:38:28.005Z,3.03
2023-02-19T14:40:56.336Z,2.78
2023-02-19T14:43:25.213Z,2.58
2023-02-19T14:45:56.204Z,2.85
2023-02-19T14:48:32.136Z,3.17
2023-02-19T14:51:08.594Z,3.10
2023-02-19T14:53:39.119Z,2.65
2023-02-19T14:56:08.185Z,3.17
2023-02-19T14:58:36.975Z,2.95
2023-02-19T15:01:05.533Z,2.88
2023-02-19T15:03:37.172Z,2.97
2023-02-19T15:06:24.495Z,3.00
2023-02-19T15:08:58.257Z,2.78
2023-02-19T15:11:26.774Z,2.70
2023-02-19T15:14:01.469Z,2.75
2023-02-19T15:16:29.992Z,2.85
2023-02-19T15:18:58.773Z,2.65
2023-02-19T15:21:27.949Z,2.47
2023-02-19T15:24:00.821Z,2.90
2023-02-19T15:26:32.871Z,2.92
2023-02-19T15:29:01.440Z,2.95
2023-02-19T15:31:29.117Z,2.90
2023-02-19T15:33:56.731Z,2.70
2023-02-19T15:36:29.360Z,2.80
2023-02-19T15:38:58.809Z,3.15
2023-02-19T15:41:28.583Z,2.80
2023-02-19T15:44:08.397Z,3.60
2023-02-19T15:46:37.029Z,3.50
2023-02-19T15:49:04.544Z,3.22
2023-02-19T15:51:35.262Z,3.83
2023-02-19T15:54:08.581Z,3.80
2023-02-19T15:56:37.161Z,3.75
2023-02-19T15:59:20.882Z,4.22
2023-02-19T16:01:48.717Z,4.00
2023-02-19T16:04:17.438Z,3.78
2023-02-19T16:07:11.173Z,4.15
2023-02-19T16:09:39.680Z,4.10
2023-02-19T16:12:23.155Z,4.10
2023-02-19T16:14:51.125Z,3.67
2023-02-19T16:17:22.063Z,4.10
2023-02-19T16:19:54.130Z,4.00
2023-02-19T16:22:25.818Z,4.22
2023-02-19T16:24:57.797Z,4.00
2023-02-19T16:27:32.880Z,4.05
2023-02-19T16:32:28.047Z,4.07
2023-02-19T16:34:55.561Z,4.40
2023-02-19T16:37:44.199Z,4.25
2023-02-19T16:40:11.629Z,5.93
2023-02-19T16:42:58.947Z,6.05
2023-02-19T16:45:27.550Z,6.78
2023-02-19T16:47:55.082Z,6.05
2023-02-19T16:50:24.150Z,6.10
2023-02-19T16:52:52.536Z,5.50
2023-02-19T16:55:20.068Z,5.38
2023-02-19T16:57:47.561Z,5.10
2023-02-19T17:00:18.360Z,5.60
2023-02-19T17:02:49.240Z,4.53
2023-02-19T17:05:17.350Z,4.38
2023-02-19T17:07:44.743Z,4.68
2023-02-19T17:10:17.091Z,5.22
2023-02-19T17:12:44.644Z,4.80
2023-02-19T17:15:12.687Z,4.65
2023-02-19T17:17:40.140Z,4.65
2023-02-19T17:20:13.917Z,5.03
2023-02-19T17:22:41.413Z,5.03
2023-02-19T17:25:08.821Z,5.55
2023-02-19T17:27:36.475Z,5.60
2023-02-19T17:30:04.063Z,5.63
2023-02-19T17:32:31.679Z,5.53
2023-02-19T17:34:59.263Z,5.15
2023-02-19T17:37:26.737Z,5.10
2023-02-19T17:39:54.103Z,5.50
2023-02-19T17:42:21.657Z,5.45
2023-02-19T17:44:49.329Z,6.13
2023-02-19T17:47:16.743Z,6.32
2023-02-19T17:49:44.183Z,8.57
2023-02-19T17:52:13.599Z,7.03
2023-02-19T17:54:41.089Z,6.22
2023-02-19T17:57:08.565Z,5.53
2023-02-19T17:59:36.094Z,5.55
2023-02-19T18:02:03.532Z,5.50
2023-02-19T18:04:30.900Z,5.65
2023-02-19T18:06:58.382Z,5.90
2023-02-19T18:09:26.020Z,5.43
2023-02-19T18:11:53.482Z,5.63
2023-02-19T18:14:20.921Z,5.72
2023-02-19T18:16:50.393Z,6.30
2023-02-19T18:19:18.061Z,6.68
2023-02-19T18:21:45.768Z,6.35
2023-02-19T18:24:13.128Z,6.13
2023-02-19T18:26:41.182Z,6.00
2023-02-19T18:29:08.589Z,6.25
2023-02-19T18:31:37.894Z,5.60
2023-02-19T18:34:06.041Z,6.07
2023-02-19T18:36:34.091Z,6.55
2023-02-19T18:39:01.544Z,5.95
2023-02-19T18:41:28.922Z,6.68
2023-02-19T18:43:56.408Z,6.55
2023-02-19T18:46:26.042Z,6.72
2023-02-19T18:48:53.468Z,7.13
2023-02-19T18:51:23.452Z,6.63
2023-02-19T18:53:51.249Z,7.65
2023-02-19T18:56:18.736Z,7.45
2023-02-19T18:58:46.169Z,7.88
2023-02-19T19:01:14.115Z,7.50
2023-02-19T19:03:41.649Z,7.70
2023-02-19T19:06:09.034Z,8.05
2023-02-19T19:08:36.617Z,7.93
2023-02-19T19:11:04.178Z,8.35
2023-02-19T19:13:31.570Z,8.30
2023-02-19T19:15:59.040Z,9.15
2023-02-19T19:18:26.488Z,9.48
2023-02-19T19:20:56.671Z,9.07
2023-02-19T19:23:24.129Z,9.70
2023-02-19T19:25:51.532Z,9.00
2023-02-19T19:28:19.036Z,9.43
2023-02-19T19:30:46.554Z,9.73
2023-02-19T19:33:14.349Z,9.73
2023-02-19T19:35:41.746Z,9.85
2023-02-19T19:38:09.190Z,9.65
2023-02-19T19:40:39.280Z,10.50
2023-02-19T19:43:06.705Z,10.05
2023-02-19T19:45:34.258Z,10.80
2023-02-19T19:48:01.759Z,10.25
2023-02-19T19:50:29.141Z,11.20
2023-02-19T19:52:56.685Z,11.07
2023-02-19T19:55:24.068Z,11.15
2023-02-19T19:57:53.837Z,12.10
2023-02-19T20:00:23.529Z,11.52
2023-02-19T20:02:51.006Z,10.77
2023-02-19T20:05:18.620Z,10.63
2023-02-19T20:07:46.268Z,11.52
2023-02-19T20:10:15.993Z,11.23
2023-02-19T20:12:43.769Z,11.13
2023-02-19T20:15:11.448Z,10.57
2023-02-19T20:17:38.968Z,11.00
2023-02-19T20:20:06.900Z,11.18
2023-02-19T20:22:36.385Z,11.20
2023-02-19T20:25:04.140Z,11.10
2023-02-19T20:27:31.640Z,11.52
2023-02-19T20:29:59.044Z,11.38
2023-02-19T20:32:26.535Z,11.50
2023-02-19T20:34:53.925Z,11.45
2023-02-19T20:37:21.417Z,11.75
2023-02-19T20:39:48.795Z,11.43
2023-02-19T20:42:17.041Z,12.05
2023-02-19T20:44:44.487Z,11.73
2023-02-19T20:47:11.974Z,10.73
2023-02-19T20:49:39.357Z,11.25
2023-02-19T20:52:07.817Z,11.38
2023-02-19T20:54:36.401Z,10.23
2023-02-19T20:57:05.159Z,11.43
2023-02-19T20:59:38.628Z,10.50
2023-02-19T21:02:08.482Z,10.50
2023-02-19T21:04:39.183Z,10.32
2023-02-19T21:07:06.739Z,10.98
2023-02-19T21:09:34.234Z,10.57
2023-02-19T21:12:01.718Z,10.20
2023-02-19T21:14:29.150Z,10.55
2023-02-19T21:16:56.660Z,10.65
2023-02-19T21:19:24.180Z,10.68
2023-02-19T21:21:51.641Z,10.90
2023-02-19T21:24:19.108Z,10.15
2023-02-19T21:26:46.570Z,10.80
2023-02-19T21:29:16.186Z,10.40
2023-02-19T21:31:44.917Z,10.27
2023-02-19T21:34:13.484Z,10.38
2023-02-19T21:36:40.923Z,10.23
2023-02-19T21:39:09.626Z,10.23
2023-02-19T21:41:37.344Z,10.07
2023-02-19T21:44:04.800Z,9.98
2023-02-19T21:46:35.147Z,10.32
2023-02-19T21:49:04.074Z,9.90
2023-02-19T21:51:38.663Z,9.38
2023-02-19T21:54:06.730Z,10.57
2023-02-19T21:56:36.396Z,10.35
2023-02-19T21:59:04.526Z,9.85
2023-02-19T22:01:33.359Z,9.27
2023-02-19T22:04:01.394Z,9.95
2023-02-19T22:06:30.801Z,9.82
2023-02-19T22:08:58.825Z,9.38
2023-02-19T22:11:26.330Z,9.30
2023-02-19T22:13:54.118Z,9.20
2023-02-19T22:16:21.876Z,9.32
2023-02-19T22:18:50.102Z,9.43
2023-02-19T22:21:17.777Z,9.20
2023-02-19T22:23:48.864Z,8.48
2023-02-19T22:26:19.382Z,9.10
2023-02-19T22:28:47.862Z,8.88
2023-02-19T22:31:20.069Z,8.93
2023-02-19T22:33:47.708Z,8.63
2023-02-19T22:36:19.045Z,9.18
2023-02-19T22:38:46.903Z,9.38
2023-02-19T22:41:14.966Z,9.40
2023-02-19T22:43:42.374Z,9.18
2023-02-19T22:46:14.885Z,9.40
2023-02-19T22:48:42.601Z,9.70
2023-02-19T22:51:13.038Z,9.70
2023-02-19T22:53:47.502Z,8.80
2023-02-19T22:56:15.873Z,9.25
2023-02-19T22:58:43.810Z,9.20
2023-02-19T23:01:11.768Z,9.35
2023-02-19T23:03:50.157Z,9.15
2023-02-19T23:06:18.566Z,8.95
2023-02-19T23:08:46.006Z,9.23
2023-02-19T23:11:13.840Z,9.35
2023-02-19T23:13:42.554Z,9.25
2023-02-19T23:16:10.200Z,9.00
2023-02-19T23:18:37.747Z,10.13
2023-02-19T23:21:05.281Z,10.00
2023-02-19T23:23:32.665Z,9.20
2023-02-19T23:26:00.038Z,9.88
2023-02-19T23:28:27.486Z,9.40
2023-02-19T23:30:54.980Z,10.30
2023-02-19T23:33:22.495Z,10.20
2023-02-19T23:35:49.857Z,9.30
2023-02-19T23:38:17.594Z,9.93
2023-02-19T23:40:45.434Z,10.20
2023-02-19T23:43:13.214Z,10.10
2023-02-19T23:45:40.649Z,10.07
2023-02-19T23:48:08.107Z,9.95
2023-02-19T23:50:35.528Z,10.40
2023-02-19T23:53:02.994Z,9.45
2023-02-19T23:55:30.497Z,10.05
2023-02-19T23:57:58.072Z,9.82
